Time;durP1;ratioP1;P1;durP2;ratioP2;P2;SDS_P1;SDS_P2;PMS_P1;PMS_P2;Temp;Humidity;BMP_temperature;BMP_pressure;BME280_temperature;BME280_humidity;BME280_pressure;Samples;Min_cycle;Max_cycle;Signal;HPM_P1;HPM_P2
2023/01/10 00:00:51;;;;;;;13.60;2.15;;;7.80;99.90;;;;;;5033482;28;20052;-82
2023/01/10 00:03:18;;;;;;;13.55;1.90;;;7.80;99.90;;;;;;5033676;28;20021;-82
2023/01/10 00:05:43;;;;;;;18.10;2.45;;;7.80;99.90;;;;;;5033253;28;20030;-83
2023/01/10 00:08:14;;;;;;;14.85;2.65;;;7.80;99.90;;;;;;5035108;28;20097;-83
2023/01/10 00:10:39;;;;;;;14.90;2.33;;;7.80;99.90;;;;;;5033935;28;20353;-80
2023/01/10 00:13:23;;;;;;;19.10;2.20;;;7.70;99.90;;;;;;5017336;28;20047;-80
2023/01/10 00:15:51;;;;;;;18.50;2.15;;;7.70;99.90;;;;;;5019844;28;20030;-81
2023/01/10 00:18:16;;;;;;;12.80;1.67;;;7.70;99.90;;;;;;5034637;28;20021;-80
2023/01/10 00:20:45;;;;;;;16.50;2.25;;;7.60;99.90;;;;;;5033302;28;20115;-80
2023/01/10 00:23:12;;;;;;;13.77;2.10;;;7.50;99.90;;;;;;5034665;28;20033;-83
2023/01/10 00:25:38;;;;;;;16.15;2.15;;;7.50;99.90;;;;;;5033074;28;20432;-83
2023/01/10 00:28:10;;;;;;;18.23;2.38;;;7.50;99.90;;;;;;5033107;28;20021;-84
2023/01/10 00:30:39;;;;;;;15.07;1.98;;;7.40;99.90;;;;;;5017649;28;20022;-83
2023/01/10 00:33:06;;;;;;;11.63;2.17;;;7.50;99.90;;;;;;5032881;28;20045;-83
2023/01/10 00:35:32;;;;;;;14.50;1.98;;;7.40;99.90;;;;;;5017284;28;20052;-84
2023/01/10 00:38:04;;;;;;;11.52;1.92;;;7.40;99.90;;;;;;5034773;28;20060;-84
2023/01/10 00:40:33;;;;;;;14.07;2.20;;;7.40;99.90;;;;;;5003745;28;20025;-83
2023/01/10 00:45:47;;;;;;;17.52;2.38;;;7.30;99.90;;;;;;5036715;28;20032;-83
2023/01/10 00:48:14;;;;;;;14.65;2.78;;;7.30;99.90;;;;;;5016717;28;20184;-83
2023/01/10 00:50:40;;;;;;;15.15;2.25;;;7.30;99.90;;;;;;5017091;28;20030;-83
2023/01/10 00:53:06;;;;;;;14.30;2.70;;;7.30;99.90;;;;;;5017122;28;20040;-82
2023/01/10 00:55:33;;;;;;;14.82;2.30;;;7.30;99.90;;;;;;5033664;28;20486;-83
2023/01/10 00:57:59;;;;;;;17.30;2.45;;;7.30;99.90;;;;;;5032740;28;20025;-83
2023/01/10 01:00:25;;;;;;;14.70;2.53;;;7.30;99.90;;;;;;5016520;28;20087;-83
2023/01/10 01:02:51;;;;;;;10.13;1.90;;;7.30;99.90;;;;;;5016572;28;20029;-83
2023/01/10 01:05:17;;;;;;;12.57;2.40;;;7.30;99.90;;;;;;5015762;28;20417;-83
2023/01/10 01:07:43;;;;;;;11.98;3.03;;;7.40;99.90;;;;;;5032267;28;20025;-83
2023/01/10 01:10:27;;;;;;;15.52;2.17;;;7.40;99.90;;;;;;5016169;28;20541;-83
2023/01/10 01:13:13;;;;;;;10.82;1.63;;;7.40;99.90;;;;;;5034007;28;20026;-83
2023/01/10 01:15:39;;;;;;;11.65;2.20;;;7.30;99.90;;;;;;5032062;28;20041;-82
2023/01/10 01:18:05;;;;;;;13.18;2.15;;;7.30;99.90;;;;;;5016076;28;20450;-82
2023/01/10 01:20:31;;;;;;;15.70;2.35;;;7.30;99.90;;;;;;5032000;28;20052;-82
2023/01/10 01:22:57;;;;;;;14.75;2.28;;;7.30;99.90;;;;;;5032126;28;20080;-82
2023/01/10 01:25:23;;;;;;;15.27;1.80;;;7.30;99.90;;;;;;5033953;28;20366;-82
2023/01/10 01:27:49;;;;;;;15.77;2.38;;;7.30;99.90;;;;;;5032053;28;20100;-82
2023/01/10 01:30:15;;;;;;;14.55;1.85;;;7.40;99.90;;;;;;5032027;28;20028;-82
2023/01/10 01:32:41;;;;;;;10.35;1.88;;;7.40;99.90;;;;;;5033354;28;20080;-82
2023/01/10 01:35:09;;;;;;;15.77;2.45;;;7.40;99.90;;;;;;5032248;28;20048;-82
2023/01/10 01:37:35;;;;;;;10.65;1.80;;;7.50;99.90;;;;;;5016085;28;20018;-83
2023/01/10 01:40:01;;;;;;;14.38;1.92;;;7.50;99.90;;;;;;4999391;28;20477;-83
2023/01/10 01:42:31;;;;;;;15.27;2.35;;;7.50;99.90;;;;;;4999158;28;20032;-82
2023/01/10 01:45:16;;;;;;;17.48;1.73;;;7.50;99.90;;;;;;5032282;28;20430;-82
2023/01/10 01:47:47;;;;;;;14.50;1.70;;;7.50;99.90;;;;;;5031995;28;20017;-82
2023/01/10 01:50:42;;;;;;;15.60;2.00;;;7.40;99.90;;;;;;5032792;28;20025;-82
2023/01/10 01:53:23;;;;;;;11.77;1.95;;;7.40;99.90;;;;;;5022515;28;20059;-82
2023/01/10 01:55:50;;;;;;;12.65;1.98;;;7.30;99.90;;;;;;5031904;28;20112;-82
2023/01/10 01:58:19;;;;;;;16.38;2.25;;;7.30;99.90;;;;;;5033137;28;20033;-82
2023/01/10 02:00:44;;;;;;;10.60;1.85;;;7.30;99.90;;;;;;5031856;28;20021;-82
2023/01/10 02:03:12;;;;;;;11.45;1.65;;;7.30;99.90;;;;;;5015457;28;20396;-82
2023/01/10 02:05:41;;;;;;;16.88;2.00;;;7.20;99.90;;;;;;5031716;28;20053;-83
2023/01/10 02:08:07;;;;;;;15.50;2.95;;;7.10;99.90;;;;;;5032030;28;20058;-82
2023/01/10 02:11:05;;;;;;;13.70;1.70;;;7.10;99.90;;;;;;5031574;28;20361;-82
2023/01/10 02:13:34;;;;;;;16.48;2.45;;;7.10;99.90;;;;;;5033054;28;20029;-83
2023/01/10 02:16:00;;;;;;;17.65;2.00;;;7.10;99.90;;;;;;5031660;28;20021;-83
2023/01/10 02:18:26;;;;;;;14.90;2.17;;;7.00;99.90;;;;;;5031756;28;20196;-82
2023/01/10 02:21:36;;;;;;;18.98;1.55;;;7.00;99.90;;;;;;5016691;28;20021;-83
2023/01/10 02:24:10;;;;;;;17.05;1.70;;;7.00;99.90;;;;;;5035881;28;20056;-83
2023/01/10 02:27:07;;;;;;;14.10;1.58;;;7.00;99.90;;;;;;5035682;28;20053;-82
2023/01/10 02:29:51;;;;;;;12.98;2.10;;;7.00;99.90;;;;;;5036308;28;20517;-83
2023/01/10 02:32:35;;;;;;;12.77;1.60;;;7.00;99.90;;;;;;5035783;28;20029;-82
2023/01/10 02:35:50;;;;;;;18.98;2.65;;;7.10;99.90;;;;;;5036540;28;20372;-82
2023/01/10 02:38:26;;;;;;;30.52;2.20;;;7.10;99.90;;;;;;5036621;28;20036;-83
2023/01/10 02:41:17;;;;;;;14.07;2.38;;;7.10;99.90;;;;;;5035603;28;20038;-83
2023/01/10 02:43:52;;;;;;;14.70;1.67;;;7.10;99.90;;;;;;5035244;28;20025;-83
2023/01/10 02:46:24;;;;;;;12.80;1.90;;;7.10;99.90;;;;;;5035810;28;20025;-83
2023/01/10 02:48:51;;;;;;;16.05;2.95;;;7.20;99.90;;;;;;5035322;28;20059;-82
2023/01/10 02:51:23;;;;;;;19.23;2.00;;;7.20;99.90;;;;;;5034971;28;20139;-82
2023/01/10 02:53:59;;;;;;;12.15;1.63;;;7.20;99.90;;;;;;5036333;28;20021;-81
2023/01/10 02:56:49;;;;;;;17.30;1.45;;;7.20;99.90;;;;;;5034803;28;20021;-82
2023/01/10 02:59:18;;;;;;;12.45;1.55;;;7.20;99.90;;;;;;5035364;28;20060;-81
2023/01/10 03:01:46;;;;;;;13.85;2.03;;;7.20;99.90;;;;;;5035776;28;20029;-82
2023/01/10 03:04:23;;;;;;;18.88;3.25;;;7.30;99.90;;;;;;5035038;28;20022;-82
2023/01/10 03:07:19;;;;;;;16.17;1.98;;;7.30;99.90;;;;;;5035033;28;20517;-82
2023/01/10 03:09:56;;;;;;;12.00;1.35;;;7.30;99.90;;;;;;5034461;28;20414;-83
2023/01/10 03:12:43;;;;;;;18.48;1.98;;;7.30;99.90;;;;;;5035864;28;20025;-83
2023/01/10 03:15:12;;;;;;;15.73;1.85;;;7.30;99.90;;;;;;5034724;28;20022;-83
2023/01/10 03:17:39;;;;;;;19.85;1.48;;;7.40;99.90;;;;;;5034591;28;20028;-83
2023/01/10 03:20:06;;;;;;;15.02;1.75;;;7.40;99.90;;;;;;5018247;28;20025;-83
2023/01/10 03:22:36;;;;;;;12.80;1.58;;;7.40;99.90;;;;;;5034048;28;20038;-83
2023/01/10 03:25:05;;;;;;;13.98;1.70;;;7.40;99.90;;;;;;5035529;28;20454;-83
2023/01/10 03:28:10;;;;;;;15.00;1.40;;;7.40;99.90;;;;;;5034267;28;20021;-83
2023/01/10 03:31:07;;;;;;;17.83;2.08;;;7.40;99.90;;;;;;5034887;28;20029;-83
2023/01/10 03:33:34;;;;;;;19.88;1.98;;;7.40;99.90;;;;;;5033937;28;20060;-85
2023/01/10 03:36:17;;;;;;;14.95;2.55;;;7.40;99.90;;;;;;5034047;28;20022;-84
2023/01/10 03:39:03;;;;;;;14.13;1.80;;;7.30;99.90;;;;;;5034584;28;20072;-83
2023/01/10 03:41:58;;;;;;;18.73;2.40;;;7.40;99.90;;;;;;5032916;28;20065;-84
2023/01/10 03:44:51;;;;;;;15.07;1.80;;;7.30;99.90;;;;;;5033745;28;20132;-84
2023/01/10 03:47:39;;;;;;;16.33;2.33;;;7.30;99.90;;;;;;5035080;28;20018;-83
2023/01/10 03:50:07;;;;;;;17.83;1.90;;;7.30;99.90;;;;;;5034556;28;20080;-83
2023/01/10 03:52:35;;;;;;;16.65;2.00;;;7.30;99.90;;;;;;5034927;28;20037;-75
2023/01/10 03:55:02;;;;;;;14.18;1.90;;;7.30;99.90;;;;;;5035292;28;20028;-75
2023/01/10 03:57:27;;;;;;;16.65;2.30;;;7.30;99.90;;;;;;5033993;28;20036;-74
2023/01/10 03:59:58;;;;;;;21.08;2.40;;;7.30;99.90;;;;;;5033689;28;20029;-74
2023/01/10 04:02:29;;;;;;;14.00;1.83;;;7.30;99.90;;;;;;5035148;28;20101;-74
2023/01/10 04:04:55;;;;;;;20.27;3.28;;;7.30;99.90;;;;;;5035120;28;20075;-74
2023/01/10 04:07:21;;;;;;;17.20;2.72;;;7.20;99.90;;;;;;5017197;28;20049;-74
2023/01/10 04:09:47;;;;;;;18.58;2.47;;;7.20;99.90;;;;;;5034886;28;20029;-74
2023/01/10 04:12:13;;;;;;;13.30;2.25;;;7.20;99.90;;;;;;5034831;28;20084;-75
2023/01/10 04:14:39;;;;;;;17.48;3.13;;;7.20;99.90;;;;;;5001323;28;20051;-75
2023/01/10 04:17:04;;;;;;;18.88;2.42;;;7.20;99.90;;;;;;5033560;28;20365;-74
2023/01/10 04:19:30;;;;;;;20.23;2.92;;;7.20;99.90;;;;;;5033432;28;20029;-75
2023/01/10 04:21:56;;;;;;;24.30;3.97;;;7.20;99.90;;;;;;5016885;28;20029;-75
2023/01/10 04:24:22;;;;;;;21.92;3.65;;;7.20;99.90;;;;;;5033442;28;20442;-75
2023/01/10 04:26:47;;;;;;;20.90;3.53;;;7.20;99.90;;;;;;5033093;28;20025;-75
2023/01/10 04:29:13;;;;;;;18.23;3.42;;;7.20;99.90;;;;;;5033640;28;20116;-75
2023/01/10 04:31:39;;;;;;;22.15;4.22;;;7.10;99.90;;;;;;5033107;28;20041;-75
2023/01/10 04:34:06;;;;;;;19.63;3.75;;;7.10;99.90;;;;;;5033679;28;20424;-74
2023/01/10 04:36:32;;;;;;;21.83;3.20;;;7.10;99.90;;;;;;5033183;28;20025;-74
2023/01/10 04:38:58;;;;;;;24.77;4.68;;;7.00;99.90;;;;;;5000408;28;20424;-75
2023/01/10 04:41:24;;;;;;;25.13;5.00;;;7.00;99.90;;;;;;5016668;28;20033;-75
2023/01/10 04:43:49;;;;;;;24.90;3.95;;;7.00;99.90;;;;;;5032403;28;20083;-74
2023/01/10 04:46:15;;;;;;;24.52;5.38;;;7.00;99.90;;;;;;5033070;28;20026;-75
2023/01/10 04:48:41;;;;;;;24.83;4.18;;;7.00;99.90;;;;;;5001003;28;20033;-75
2023/01/10 04:51:07;;;;;;;20.08;3.72;;;7.00;99.90;;;;;;5016345;28;20444;-75
2023/01/10 04:53:32;;;;;;;20.88;3.42;;;7.00;99.90;;;;;;5016943;28;20021;-75
2023/01/10 04:56:03;;;;;;;22.90;3.85;;;7.00;99.90;;;;;;5032815;28;20030;-75
2023/01/10 04:58:32;;;;;;;19.60;3.83;;;7.00;99.90;;;;;;5032900;28;20044;-75
2023/01/10 05:00:57;;;;;;;17.27;3.63;;;7.00;99.90;;;;;;5034060;28;20044;-75
2023/01/10 05:03:23;;;;;;;22.40;3.75;;;7.00;99.90;;;;;;5032529;28;20384;-75
2023/01/10 05:05:49;;;;;;;22.88;4.43;;;7.00;99.90;;;;;;5016083;28;20025;-75
2023/01/10 05:08:14;;;;;;;26.80;4.18;;;7.00;99.90;;;;;;5016407;28;20025;-75
2023/01/10 05:10:40;;;;;;;22.58;3.45;;;7.00;99.90;;;;;;5032913;28;20048;-75
2023/01/10 05:13:05;;;;;;;22.15;3.80;;;7.00;99.90;;;;;;4999804;28;20375;-74
2023/01/10 05:15:31;;;;;;;27.00;4.32;;;7.00;99.90;;;;;;5000559;28;20461;-74
2023/01/10 05:18:00;;;;;;;17.17;3.38;;;7.00;99.90;;;;;;5032410;28;20022;-74
2023/01/10 05:20:25;;;;;;;21.05;3.35;;;7.00;99.90;;;;;;5016909;28;20021;-75
2023/01/10 05:22:51;;;;;;;21.27;3.60;;;7.00;99.90;;;;;;5000508;28;20029;-75
2023/01/10 05:25:17;;;;;;;21.63;3.33;;;7.00;99.90;;;;;;5032819;28;20454;-75
2023/01/10 05:27:42;;;;;;;21.90;4.35;;;7.00;99.90;;;;;;5032497;28;20029;-75
2023/01/10 05:30:11;;;;;;;21.17;3.80;;;7.00;99.90;;;;;;4999644;28;20496;-75
2023/01/10 05:32:36;;;;;;;22.13;3.45;;;7.00;99.90;;;;;;5033485;28;20039;-75
2023/01/10 05:35:03;;;;;;;25.83;3.45;;;7.10;99.90;;;;;;5016004;28;20045;-75
2023/01/10 05:37:28;;;;;;;20.67;3.53;;;7.10;99.90;;;;;;5033242;28;20079;-75
2023/01/10 05:39:54;;;;;;;29.35;3.70;;;7.10;99.90;;;;;;5032170;28;20025;-75
2023/01/10 05:42:20;;;;;;;27.23;4.10;;;7.20;99.90;;;;;;5032184;28;20044;-75
2023/01/10 05:44:45;;;;;;;21.17;3.00;;;7.20;99.90;;;;;;5033240;28;20505;-75
2023/01/10 05:47:11;;;;;;;25.45;3.70;;;7.20;99.90;;;;;;5032021;28;20033;-75
2023/01/10 05:49:37;;;;;;;25.85;4.53;;;7.30;99.90;;;;;;5016061;28;20033;-75
2023/01/10 05:52:02;;;;;;;18.15;3.67;;;7.30;99.90;;;;;;5032633;28;20038;-75
2023/01/10 05:54:28;;;;;;;21.77;4.60;;;7.30;99.90;;;;;;5033004;28;20029;-74
2023/01/10 05:56:54;;;;;;;20.42;3.58;;;7.30;99.90;;;;;;5036278;28;20057;-75
2023/01/10 05:59:20;;;;;;;28.92;4.15;;;7.30;99.90;;;;;;5037438;28;20028;-74
2023/01/10 06:01:45;;;;;;;24.27;4.65;;;7.30;99.90;;;;;;5036484;28;20029;-75
2023/01/10 06:04:11;;;;;;;20.67;3.30;;;7.30;99.90;;;;;;5035989;28;20036;-76
2023/01/10 06:06:36;;;;;;;29.42;4.13;;;7.30;99.90;;;;;;5019478;28;20129;-74
2023/01/10 06:09:02;;;;;;;20.95;3.60;;;7.30;99.90;;;;;;5036095;28;20045;-74
2023/01/10 06:11:28;;;;;;;22.65;3.78;;;7.30;99.90;;;;;;5036266;28;20033;-74
2023/01/10 06:13:57;;;;;;;34.63;4.70;;;7.30;99.90;;;;;;5035920;28;20477;-74
2023/01/10 06:16:24;;;;;;;24.80;3.92;;;7.30;99.90;;;;;;5036851;28;20025;-75
2023/01/10 06:18:50;;;;;;;29.85;4.53;;;7.30;99.90;;;;;;5036913;28;20029;-74
2023/01/10 06:21:15;;;;;;;22.40;4.65;;;7.30;99.90;;;;;;5037200;28;20039;-74
2023/01/10 06:23:41;;;;;;;23.10;3.72;;;7.30;99.90;;;;;;5036810;28;20033;-74
2023/01/10 06:26:07;;;;;;;22.02;3.65;;;7.30;99.90;;;;;;5035302;28;20147;-75
2023/01/10 06:28:32;;;;;;;29.55;3.75;;;7.20;99.90;;;;;;5003221;28;20040;-75
2023/01/10 06:30:58;;;;;;;23.20;3.78;;;7.20;99.90;;;;;;5036325;28;20446;-75
2023/01/10 06:33:24;;;;;;;28.20;4.22;;;7.20;99.90;;;;;;5018476;28;20049;-75
2023/01/10 06:35:49;;;;;;;24.27;4.03;;;7.20;99.90;;;;;;5035479;28;20021;-75
2023/01/10 06:38:15;;;;;;;25.88;4.53;;;7.20;99.90;;;;;;5036508;28;20159;-75
2023/01/10 06:40:41;;;;;;;23.77;3.88;;;7.10;99.90;;;;;;5035300;28;20044;-74
2023/01/10 06:43:06;;;;;;;28.45;4.90;;;7.10;99.90;;;;;;5035093;28;20038;-75
2023/01/10 06:45:32;;;;;;;20.42;3.88;;;7.10;99.90;;;;;;5018779;28;20029;-74
2023/01/10 06:47:58;;;;;;;30.80;4.50;;;7.10;99.90;;;;;;5035770;28;20033;-74
2023/01/10 06:50:24;;;;;;;22.65;3.65;;;7.10;99.90;;;;;;5034743;28;20026;-75
2023/01/10 06:53:01;;;;;;;32.45;4.60;;;7.10;99.90;;;;;;5018661;28;20361;-75
2023/01/10 06:55:27;;;;;;;25.92;3.97;;;7.10;99.90;;;;;;5019303;28;20035;-75
2023/01/10 06:58:01;;;;;;;26.95;3.67;;;7.10;99.90;;;;;;5035399;28;20022;-79
2023/01/10 07:00:28;;;;;;;27.20;4.35;;;7.20;99.90;;;;;;5036559;28;20036;-74
2023/01/10 07:02:58;;;;;;;27.15;3.90;;;7.20;99.90;;;;;;5035508;28;20021;-75
2023/01/10 07:05:23;;;;;;;29.58;4.97;;;7.20;99.90;;;;;;5034763;28;20112;-77
2023/01/10 07:07:49;;;;;;;22.75;3.95;;;7.20;99.90;;;;;;5035019;28;20414;-77
2023/01/10 07:10:15;;;;;;;22.73;3.90;;;7.20;99.90;;;;;;5018610;28;20029;-78
2023/01/10 07:12:41;;;;;;;22.65;3.75;;;7.30;99.90;;;;;;5002646;28;20108;-77
2023/01/10 07:15:07;;;;;;;31.80;5.35;;;7.30;99.90;;;;;;5035441;28;20026;-77
2023/01/10 07:17:33;;;;;;;22.95;3.70;;;7.30;99.90;;;;;;5018855;28;20410;-78
2023/01/10 07:19:58;;;;;;;26.73;3.90;;;7.30;99.90;;;;;;5017784;28;20065;-77
2023/01/10 07:22:24;;;;;;;22.55;3.95;;;7.40;99.90;;;;;;5018215;28;20124;-76
2023/01/10 07:24:49;;;;;;;31.23;5.10;;;7.40;99.90;;;;;;5001423;28;20060;-77
2023/01/10 07:27:15;;;;;;;37.38;4.88;;;7.50;99.90;;;;;;5034209;28;20143;-77
2023/01/10 07:29:41;;;;;;;29.67;5.15;;;7.50;99.90;;;;;;5035563;28;20037;-74
2023/01/10 07:32:07;;;;;;;27.98;3.97;;;7.50;99.90;;;;;;5034126;28;20040;-73
2023/01/10 07:34:32;;;;;;;22.92;3.80;;;7.50;99.90;;;;;;5033824;28;20054;-73
2023/01/10 07:36:58;;;;;;;17.30;3.25;;;7.60;99.90;;;;;;5034164;28;20332;-73
2023/01/10 07:39:24;;;;;;;25.75;4.00;;;7.60;99.90;;;;;;5034987;28;20033;-77
2023/01/10 07:41:51;;;;;;;26.33;3.83;;;7.60;99.90;;;;;;5034527;28;20469;-73
2023/01/10 07:44:17;;;;;;;19.33;3.65;;;7.60;99.90;;;;;;5034390;28;20373;-72
2023/01/10 07:46:42;;;;;;;31.58;4.40;;;7.60;99.90;;;;;;5033843;28;20117;-70
2023/01/10 07:49:08;;;;;;;26.83;4.82;;;7.60;99.90;;;;;;5033503;28;20041;-73
2023/01/10 07:51:34;;;;;;;24.70;3.45;;;7.60;99.90;;;;;;5016897;28;20034;-73
2023/01/10 07:54:00;;;;;;;30.33;4.03;;;7.60;99.90;;;;;;5033839;28;20348;-74
2023/01/10 07:56:26;;;;;;;34.88;4.50;;;7.60;99.90;;;;;;5033144;28;20118;-74
2023/01/10 07:58:51;;;;;;;32.97;4.70;;;7.60;99.90;;;;;;5032912;28;20331;-73
2023/01/10 08:01:17;;;;;;;35.45;5.05;;;7.60;99.90;;;;;;5034319;28;20093;-75
2023/01/10 08:03:43;;;;;;;30.52;4.32;;;7.60;99.90;;;;;;5032965;28;20025;-77
2023/01/10 08:06:10;;;;;;;27.67;4.35;;;7.60;99.90;;;;;;5000333;28;20033;-77
2023/01/10 08:08:36;;;;;;;30.40;4.20;;;7.60;99.90;;;;;;5034444;28;20108;-77
2023/01/10 08:11:07;;;;;;;26.88;4.30;;;7.50;99.90;;;;;;5016342;28;20037;-76
2023/01/10 08:13:33;;;;;;;27.52;4.65;;;7.50;99.90;;;;;;5033138;28;20036;-77
2023/01/10 08:16:02;;;;;;;24.50;4.63;;;7.50;99.90;;;;;;5016649;28;20382;-76
2023/01/10 08:18:28;;;;;;;28.40;3.83;;;7.50;99.90;;;;;;5031798;28;20116;-76
2023/01/10 08:20:54;;;;;;;29.83;3.80;;;7.50;99.90;;;;;;5016059;28;20501;-76
2023/01/10 08:23:20;;;;;;;25.45;3.67;;;7.60;99.90;;;;;;5032917;28;20117;-76
2023/01/10 08:25:46;;;;;;;23.98;4.28;;;7.60;99.90;;;;;;5032968;28;20128;-77
2023/01/10 08:28:12;;;;;;;35.30;5.13;;;7.60;99.90;;;;;;5033995;28;20056;-76
2023/01/10 08:30:54;;;;;;;25.55;3.90;;;7.50;99.90;;;;;;5033936;28;20029;-77
2023/01/10 08:33:20;;;;;;;33.65;4.43;;;7.50;99.90;;;;;;5033442;28;20049;-77
2023/01/10 08:35:46;;;;;;;27.63;4.43;;;7.50;99.90;;;;;;5016601;28;20034;-77
2023/01/10 08:38:11;;;;;;;32.75;5.07;;;7.50;99.90;;;;;;5032910;28;20084;-77
2023/01/10 08:40:37;;;;;;;22.15;3.80;;;7.50;99.90;;;;;;5017093;28;20026;-76
2023/01/10 08:43:05;;;;;;;25.83;4.38;;;7.50;99.90;;;;;;5032913;28;20033;-77
2023/01/10 08:45:31;;;;;;;24.58;4.00;;;7.60;99.90;;;;;;5032811;28;20067;-77
2023/01/10 08:47:57;;;;;;;24.70;3.28;;;7.60;99.90;;;;;;5034186;28;20030;-77
2023/01/10 08:50:23;;;;;;;27.00;3.70;;;7.60;99.90;;;;;;5032618;28;20088;-77
2023/01/10 08:52:52;;;;;;;29.58;3.97;;;7.70;99.90;;;;;;5032851;28;20128;-77
2023/01/10 08:55:19;;;;;;;21.45;2.72;;;7.70;99.90;;;;;;5032853;28;20037;-77
2023/01/10 08:57:45;;;;;;;21.40;3.35;;;7.70;99.90;;;;;;5034079;28;20534;-77
2023/01/10 09:00:11;;;;;;;23.95;3.08;;;7.70;99.90;;;;;;5032709;28;20104;-77
2023/01/10 09:02:39;;;;;;;27.90;3.55;;;7.70;99.90;;;;;;5033058;28;20061;-77
2023/01/10 09:05:04;;;;;;;22.45;3.35;;;7.70;99.90;;;;;;5032954;28;20376;-77
2023/01/10 09:07:30;;;;;;;24.38;4.30;;;7.70;99.90;;;;;;5032373;28;20021;-78
2023/01/10 09:09:56;;;;;;;32.13;3.65;;;7.70;99.90;;;;;;5032398;28;20041;-77
2023/01/10 09:15:06;;;;;;;30.60;3.83;;;7.80;99.90;;;;;;5033657;28;20087;-76
2023/01/10 09:17:32;;;;;;;21.50;3.22;;;7.80;99.90;;;;;;5016946;28;20470;-77
2023/01/10 09:19:57;;;;;;;24.00;4.07;;;7.80;99.90;;;;;;5016068;28;20059;-76
2023/01/10 09:22:23;;;;;;;17.75;3.17;;;7.80;99.90;;;;;;4999663;28;20036;-77
2023/01/10 09:24:49;;;;;;;28.00;4.20;;;7.80;99.90;;;;;;4999452;28;20111;-77
2023/01/10 09:27:14;;;;;;;30.70;4.63;;;7.80;99.90;;;;;;4999406;28;20029;-77
2023/01/10 09:29:40;;;;;;;26.75;4.32;;;7.80;99.90;;;;;;5032188;28;20080;-77
2023/01/10 09:32:06;;;;;;;32.53;4.20;;;7.70;99.90;;;;;;4999551;28;20461;-77
2023/01/10 09:34:32;;;;;;;29.67;4.22;;;7.70;99.90;;;;;;5033164;28;20084;-77
2023/01/10 09:36:57;;;;;;;27.23;4.22;;;7.70;99.90;;;;;;5016035;28;20054;-77
2023/01/10 09:39:24;;;;;;;27.25;4.05;;;7.60;99.90;;;;;;5032284;28;20083;-78
2023/01/10 09:42:16;;;;;;;30.85;4.40;;;7.60;99.90;;;;;;5032346;28;20429;-77
2023/01/10 09:45:22;;;;;;;33.08;4.32;;;7.60;99.90;;;;;;5031351;28;20363;-77
2023/01/10 09:48:13;;;;;;;28.60;3.38;;;7.70;99.90;;;;;;5031329;28;20041;-77
2023/01/10 09:50:56;;;;;;;26.00;4.07;;;7.70;99.90;;;;;;5031707;28;20037;-77
2023/01/10 09:53:26;;;;;;;22.80;3.47;;;7.70;99.90;;;;;;5033628;28;20041;-77
2023/01/10 09:55:58;;;;;;;28.67;4.30;;;7.70;99.90;;;;;;5033347;28;20040;-77
2023/01/10 09:58:28;;;;;;;22.40;3.70;;;7.70;99.90;;;;;;5033442;28;20025;-76
2023/01/10 10:00:57;;;;;;;24.20;3.83;;;7.70;99.90;;;;;;5032065;28;20036;-76
2023/01/10 10:03:52;;;;;;;24.75;4.00;;;7.70;99.90;;;;;;5033376;28;20025;-76
2023/01/10 10:06:20;;;;;;;31.75;4.32;;;7.70;99.90;;;;;;5033684;28;20040;-76
2023/01/10 10:08:47;;;;;;;25.58;4.05;;;7.80;99.90;;;;;;5016081;28;20038;-76
2023/01/10 10:11:24;;;;;;;25.95;3.75;;;7.80;99.90;;;;;;5032564;28;20374;-77
2023/01/10 10:13:54;;;;;;;36.35;5.57;;;7.80;99.90;;;;;;5031932;28;20021;-77
2023/01/10 10:16:47;;;;;;;23.30;3.50;;;7.70;99.90;;;;;;5033610;28;20026;-76
2023/01/10 10:19:42;;;;;;;26.13;3.50;;;7.70;99.90;;;;;;5032875;28;20490;-77
2023/01/10 10:22:12;;;;;;;27.63;4.30;;;7.70;99.90;;;;;;5031529;28;20047;-77
2023/01/10 10:24:56;;;;;;;22.80;3.55;;;7.70;99.90;;;;;;5031764;28;20083;-77
2023/01/10 10:27:32;;;;;;;29.88;4.32;;;7.70;99.90;;;;;;5032148;28;20033;-76
2023/01/10 10:30:30;;;;;;;29.75;4.45;;;7.70;99.90;;;;;;5032898;28;20044;-76
2023/01/10 10:33:21;;;;;;;33.83;4.35;;;7.60;99.90;;;;;;5032791;28;20117;-76
2023/01/10 10:36:00;;;;;;;36.47;5.00;;;7.70;99.90;;;;;;5031181;28;20044;-76
2023/01/10 10:38:30;;;;;;;20.27;4.00;;;7.70;99.90;;;;;;5033239;28;20025;-77
2023/01/10 10:40:58;;;;;;;31.80;4.07;;;7.80;99.90;;;;;;5032929;28;20087;-77
2023/01/10 10:43:30;;;;;;;25.52;3.28;;;7.80;99.90;;;;;;5035346;28;20108;-77
2023/01/10 10:45:59;;;;;;;32.50;4.10;;;7.80;99.90;;;;;;5035515;28;20033;-75
2023/01/10 10:48:47;;;;;;;33.85;5.60;;;7.80;99.90;;;;;;5036078;28;20026;-74
2023/01/10 10:51:42;;;;;;;26.17;5.90;;;7.70;99.90;;;;;;5036342;28;20048;-73
2023/01/10 10:54:12;;;;;;;26.10;3.55;;;7.70;99.90;;;;;;5036097;28;20045;-73
2023/01/10 10:56:38;;;;;;;22.63;3.38;;;7.80;99.90;;;;;;5034808;28;20410;-73
2023/01/10 10:59:05;;;;;;;27.13;3.25;;;7.80;99.90;;;;;;5018347;28;20033;-73
2023/01/10 11:01:31;;;;;;;28.85;4.55;;;7.80;99.90;;;;;;5034780;28;20029;-73
2023/01/10 11:04:10;;;;;;;23.90;3.53;;;7.70;99.90;;;;;;5035206;28;20044;-73
2023/01/10 11:06:39;;;;;;;22.17;3.72;;;7.70;99.90;;;;;;5035842;28;20033;-73
2023/01/10 11:09:06;;;;;;;29.20;3.40;;;7.80;99.90;;;;;;5035344;28;20026;-73
2023/01/10 11:11:36;;;;;;;19.27;3.75;;;7.90;99.90;;;;;;5018665;28;20370;-73
2023/01/10 11:14:04;;;;;;;23.17;3.03;;;7.90;99.90;;;;;;5035839;28;20033;-73
2023/01/10 11:16:35;;;;;;;26.10;3.53;;;7.90;99.90;;;;;;5036318;28;20437;-73
2023/01/10 11:19:19;;;;;;;31.50;3.50;;;8.00;99.90;;;;;;5035970;28;20026;-73
2023/01/10 11:21:51;;;;;;;25.17;3.58;;;7.90;99.90;;;;;;5035747;28;20112;-74
2023/01/10 11:24:22;;;;;;;23.25;4.25;;;7.90;99.90;;;;;;5035580;28;20555;-73
2023/01/10 11:26:48;;;;;;;23.55;4.22;;;7.90;99.90;;;;;;5035850;28;20049;-73
2023/01/10 11:29:31;;;;;;;27.13;3.90;;;7.90;99.90;;;;;;5034457;28;20444;-73
2023/01/10 11:31:58;;;;;;;18.77;3.22;;;7.90;99.90;;;;;;5035456;28;20034;-72
2023/01/10 11:34:33;;;;;;;19.30;3.58;;;7.90;99.90;;;;;;5035247;28;20128;-73
2023/01/10 11:37:02;;;;;;;27.45;3.40;;;7.90;99.90;;;;;;5035275;28;20034;-75
2023/01/10 11:39:30;;;;;;;23.98;3.33;;;8.00;99.90;;;;;;5035267;28;20457;-77
2023/01/10 11:41:58;;;;;;;23.38;3.00;;;7.90;99.90;;;;;;5036042;28;20049;-76
2023/01/10 11:44:30;;;;;;;22.30;3.13;;;7.90;99.90;;;;;;5034156;28;20032;-76
2023/01/10 11:47:00;;;;;;;25.00;3.80;;;8.00;99.90;;;;;;5034996;28;20404;-77
2023/01/10 11:49:31;;;;;;;27.95;4.10;;;8.00;99.90;;;;;;5034429;28;20108;-76
2023/01/10 11:52:03;;;;;;;21.30;3.22;;;8.00;99.90;;;;;;5034715;28;20581;-75
2023/01/10 11:54:30;;;;;;;20.63;3.75;;;8.00;99.90;;;;;;5035653;28;20030;-75
2023/01/10 11:56:59;;;;;;;32.08;5.20;;;8.10;99.90;;;;;;5017726;28;20040;-76
2023/01/10 11:59:26;;;;;;;20.77;3.05;;;8.10;99.90;;;;;;5033765;28;20048;-76
2023/01/10 12:01:55;;;;;;;24.13;3.40;;;8.10;99.90;;;;;;5034142;28;20033;-76
2023/01/10 12:04:21;;;;;;;28.00;3.33;;;8.10;99.90;;;;;;5035094;28;20026;-76
2023/01/10 12:06:51;;;;;;;31.63;4.65;;;8.00;99.90;;;;;;5035189;28;20377;-76
2023/01/10 12:09:35;;;;;;;22.83;3.20;;;8.10;99.90;;;;;;5035438;28;20036;-77
2023/01/10 12:12:13;;;;;;;22.65;3.83;;;8.10;99.90;;;;;;5033510;28;20124;-76
2023/01/10 12:14:39;;;;;;;20.42;2.72;;;8.10;99.90;;;;;;5035139;28;20022;-77
2023/01/10 12:17:04;;;;;;;24.80;3.83;;;8.10;99.90;;;;;;5000542;28;20040;-76
2023/01/10 12:19:30;;;;;;;21.92;3.50;;;8.20;99.90;;;;;;5034458;28;20033;-75
2023/01/10 12:22:01;;;;;;;25.13;3.00;;;8.20;99.90;;;;;;5034286;28;20577;-76
2023/01/10 12:24:34;;;;;;;25.35;3.28;;;8.20;99.90;;;;;;5033489;28;20044;-76
2023/01/10 12:27:02;;;;;;;23.88;3.05;;;8.20;99.90;;;;;;5034116;28;20030;-76
2023/01/10 12:29:33;;;;;;;23.42;2.67;;;8.20;99.90;;;;;;5033467;28;20378;-77
2023/01/10 12:32:00;;;;;;;24.30;3.58;;;8.20;99.90;;;;;;5034316;28;20034;-76
2023/01/10 12:34:38;;;;;;;21.55;3.35;;;8.30;99.90;;;;;;5016764;28;20107;-76
2023/01/10 12:37:25;;;;;;;21.60;3.15;;;8.30;99.90;;;;;;5033483;28;20083;-76
2023/01/10 12:40:09;;;;;;;26.08;3.60;;;8.30;99.90;;;;;;5033138;28;20029;-76
2023/01/10 12:45:55;;;;;;;21.98;3.28;;;8.30;99.90;;;;;;5034189;28;20032;-76
2023/01/10 12:48:44;;;;;;;25.52;3.58;;;8.30;99.90;;;;;;5033062;28;20116;-76
2023/01/10 12:51:17;;;;;;;24.88;3.35;;;8.30;99.90;;;;;;5031888;28;20128;-75
2023/01/10 12:53:48;;;;;;;27.55;3.90;;;8.30;99.90;;;;;;5034236;28;20497;-75
2023/01/10 12:56:15;;;;;;;23.02;4.55;;;8.20;99.90;;;;;;5032637;28;20036;-76
2023/01/10 12:59:15;;;;;;;18.45;3.35;;;8.30;99.90;;;;;;5033869;28;20032;-77
2023/01/10 13:01:42;;;;;;;21.23;3.60;;;8.20;99.90;;;;;;5031951;28;20132;-73
2023/01/10 13:04:16;;;;;;;28.33;4.53;;;8.20;99.90;;;;;;5033056;28;20478;-75
2023/01/10 13:06:43;;;;;;;24.70;3.85;;;8.10;99.90;;;;;;5033970;28;20025;-75
2023/01/10 13:09:18;;;;;;;20.80;3.42;;;8.10;99.90;;;;;;5034007;28;20029;-74
2023/01/10 13:11:53;;;;;;;22.08;2.95;;;8.10;99.90;;;;;;5033730;28;20059;-75
2023/01/10 13:14:27;;;;;;;21.33;3.58;;;8.10;99.90;;;;;;5033038;28;20092;-74